Time;durP1;ratioP1;P1;durP2;ratioP2;P2;SDS_P1;SDS_P2;PMS_P1;PMS_P2;Temp;Humidity;BMP_temperature;BMP_pressure;BME280_temperature;BME280_humidity;BME280_pressure;Samples;Min_cycle;Max_cycle;Signal;HPM_P1;HPM_P2
2023/02/14 00:01:15;;;;;;;;;;;;;;;-6.65;82.54;94738.13;5011032;28;19918;-48
2023/02/14 00:03:40;;;;;;;;;;;;;;;-6.59;82.82;94749.91;5009669;28;20512;-48
2023/02/14 00:06:06;;;;;;;;;;;;;;;-6.51;83.13;94752.06;5010758;28;20585;-48
2023/02/14 00:08:31;;;;;;;;;;;;;;;-6.45;80.78;94744.31;5010243;28;19921;-50
2023/02/14 00:10:56;;;;;;;;;;;;;;;-6.53;80.90;94740.22;5010416;28;20048;-48
2023/02/14 00:13:22;;;;;;;;;;;;;;;-6.54;81.52;94744.81;5016023;28;19917;-48
2023/02/14 00:15:47;;;;;;;;;;;;;;;-6.66;81.95;94742.72;5016200;28;19971;-48
2023/02/14 00:18:12;;;;;;;;;;;;;;;-6.56;81.46;94738.38;5008875;28;20012;-48
2023/02/14 00:20:37;;;;;;;;;;;;;;;-7.02;81.37;94750.53;5010080;28;20313;-49
2023/02/14 00:23:03;;;;;;;;;;;;;;;-7.17;81.75;94722.38;5010417;28;20012;-48
2023/02/14 00:25:28;;;;;;;;;;;;;;;-6.81;81.28;94735.28;5010683;28;19925;-48
2023/02/14 00:27:54;;;;;;;;;;;;;;;-6.76;81.75;94740.19;5010163;28;19995;-49
2023/02/14 00:30:19;;;;;;;;;;;;;;;-6.64;80.37;94731.56;5010158;28;19960;-48
2023/02/14 00:32:44;;;;;;;;;;;;;;;-6.61;81.15;94733.44;5014327;28;19939;-48
2023/02/14 00:35:10;;;;;;;;;;;;;;;-6.58;80.96;94728.00;5029783;28;19921;-48
2023/02/14 00:37:35;;;;;;;;;;;;;;;-6.61;81.00;94734.22;5029882;28;19971;-48
2023/02/14 00:40:01;;;;;;;;;;;;;;;-6.60;79.67;94730.34;5029901;28;19935;-48
2023/02/14 00:42:26;;;;;;;;;;;;;;;-6.73;80.17;94728.63;5029915;28;20400;-48
2023/02/14 00:44:51;;;;;;;;;;;;;;;-6.90;80.78;94727.75;5029923;28;20008;-48
2023/02/14 00:47:16;;;;;;;;;;;;;;;-6.76;80.86;94713.34;5029831;28;19924;-47
2023/02/14 00:49:42;;;;;;;;;;;;;;;-6.74;80.67;94716.38;5029418;28;20355;-48
2023/02/14 00:52:07;;;;;;;;;;;;;;;-6.89;81.75;94717.78;5029275;28;19913;-48
2023/02/14 00:54:32;;;;;;;;;;;;;;;-7.01;81.66;94716.41;5029930;28;19913;-48
2023/02/14 00:56:58;;;;;;;;;;;;;;;-6.96;81.48;94724.75;5025875;28;19928;-48
2023/02/14 00:59:23;;;;;;;;;;;;;;;-7.06;81.61;94703.44;5024337;28;19921;-49
2023/02/14 01:01:49;;;;;;;;;;;;;;;-6.95;82.12;94704.78;5029049;28;19953;-48
2023/02/14 01:04:14;;;;;;;;;;;;;;;-6.77;81.17;94714.50;5029355;28;19923;-49
2023/02/14 01:06:39;;;;;;;;;;;;;;;-6.77;81.47;94717.19;5027936;28;19917;-48
2023/02/14 01:09:04;;;;;;;;;;;;;;;-6.60;80.15;94713.47;5027750;28;19917;-47
2023/02/14 01:11:30;;;;;;;;;;;;;;;-6.55;79.90;94705.72;5009300;28;19917;-48
2023/02/14 01:13:55;;;;;;;;;;;;;;;-6.69;80.82;94699.81;5009155;28;19921;-47
2023/02/14 01:16:21;;;;;;;;;;;;;;;-6.67;80.40;94695.53;5027990;28;19920;-47
2023/02/14 01:18:47;;;;;;;;;;;;;;;-6.75;80.59;94696.06;5029245;28;19990;-48
2023/02/14 01:21:13;;;;;;;;;;;;;;;-6.78;80.20;94694.22;5029005;28;20376;-49
2023/02/14 01:23:39;;;;;;;;;;;;;;;-6.64;80.26;94693.97;5029074;28;19921;-48
2023/02/14 01:26:05;;;;;;;;;;;;;;;-6.62;80.08;94687.03;5026566;28;20409;-48
2023/02/14 01:28:30;;;;;;;;;;;;;;;-6.79;79.80;94684.63;5009249;28;19921;-47
2023/02/14 01:30:56;;;;;;;;;;;;;;;-6.99;82.18;94682.63;5008697;28;19917;-49
2023/02/14 01:33:21;;;;;;;;;;;;;;;-6.91;82.00;94664.50;5019531;28;19917;-48
2023/02/14 01:35:46;;;;;;;;;;;;;;;-6.70;82.79;94666.06;5028621;28;20364;-48
2023/02/14 01:38:11;;;;;;;;;;;;;;;-6.79;81.76;94653.16;5028687;28;19952;-48
2023/02/14 01:40:41;;;;;;;;;;;;;;;-6.92;82.28;94660.28;5028264;28;19917;-48
2023/02/14 01:43:10;;;;;;;;;;;;;;;-6.96;82.47;94659.56;5028363;28;19924;-48
2023/02/14 01:45:35;;;;;;;;;;;;;;;-6.85;82.46;94659.41;5027230;28;20438;-48
2023/02/14 01:48:01;;;;;;;;;;;;;;;-6.82;81.88;94653.97;5027591;28;19917;-48
2023/02/14 01:50:29;;;;;;;;;;;;;;;-6.67;81.76;94657.94;5028253;28;19986;-48
2023/02/14 01:52:56;;;;;;;;;;;;;;;-6.77;82.07;94666.94;5027020;28;19917;-47
2023/02/14 01:55:22;;;;;;;;;;;;;;;-6.83;81.87;94665.88;5028260;28;19940;-49
2023/02/14 01:57:52;;;;;;;;;;;;;;;-6.60;82.40;94671.25;5017998;28;20586;-48
2023/02/14 02:03:02;;;;;;;;;;;;;;;-6.35;80.40;94655.47;5008494;28;20665;-49
2023/02/14 02:05:27;;;;;;;;;;;;;;;-6.48;80.53;94653.81;5009072;28;19914;-48
2023/02/14 02:07:54;;;;;;;;;;;;;;;-6.38;82.76;94642.88;5028428;28;19917;-49
2023/02/14 02:10:19;;;;;;;;;;;;;;;-6.40;81.58;94634.47;5026757;28;19913;-48
2023/02/14 02:12:45;;;;;;;;;;;;;;;-6.31;80.91;94628.53;5028222;28;19923;-49
2023/02/14 02:15:10;;;;;;;;;;;;;;;-6.29;80.17;94621.59;5018752;28;19925;-49
2023/02/14 02:17:41;;;;;;;;;;;;;;;-6.44;80.53;94624.94;5008272;28;19920;-50
2023/02/14 02:20:09;;;;;;;;;;;;;;;-6.39;80.10;94619.84;5008085;28;19928;-48
2023/02/14 02:23:07;;;;;;;;;;;;;;;-6.55;81.11;94627.81;5007973;28;19913;-47
2023/02/14 02:25:38;;;;;;;;;;;;;;;-6.69;81.94;94620.00;4974403;28;19917;-49
2023/02/14 02:28:03;;;;;;;;;;;;;;;-6.77;81.52;94613.25;5026782;28;19928;-49
2023/02/14 02:30:31;;;;;;;;;;;;;;;-6.68;81.94;94613.47;5027700;28;19916;-48
2023/02/14 02:33:09;;;;;;;;;;;;;;;-6.61;81.85;94613.34;5019807;28;20643;-49
2023/02/14 02:35:46;;;;;;;;;;;;;;;-6.60;81.55;94600.66;5007600;28;20386;-50
2023/02/14 02:38:14;;;;;;;;;;;;;;;-6.50;81.77;94608.56;5008238;28;19921;-49
2023/02/14 02:40:47;;;;;;;;;;;;;;;-6.64;81.70;94610.72;5007962;28;19917;-50
2023/02/14 02:43:18;;;;;;;;;;;;;;;-6.57;81.42;94610.59;5007055;28;19917;-48
2023/02/14 02:46:46;;;;;;;;;;;;;;;-6.82;81.66;94611.00;5008077;28;19943;-48
2023/02/14 02:48:39;;;;;;;;;;;;;;;-6.93;82.61;94598.97;5007904;28;19920;-49
2023/02/14 02:53:50;;;;;;;;;;;;;;;-6.97;81.95;94625.84;5007941;28;19972;-49
2023/02/14 02:59:21;;;;;;;;;;;;;;;-6.93;82.43;94618.50;5018932;28;20315;-48
2023/02/14 03:01:48;;;;;;;;;;;;;;;-7.04;82.36;94610.59;5013599;28;20294;-48
2023/02/14 03:06:58;;;;;;;;;;;;;;;-6.80;81.65;94591.84;5006477;28;20368;-49
2023/02/14 03:09:26;;;;;;;;;;;;;;;-6.90;81.20;94590.84;5007818;28;19917;-49
2023/02/14 03:11:57;;;;;;;;;;;;;;;-7.24;82.29;94599.06;5007550;28;19921;-48
2023/02/14 03:14:28;;;;;;;;;;;;;;;-7.13;82.40;94596.22;5009012;28;19914;-48
2023/02/14 03:16:59;;;;;;;;;;;;;;;-7.26;81.75;94592.59;5026140;28;19921;-49
2023/02/14 03:22:31;;;;;;;;;;;;;;;-7.34;81.96;94594.59;5027298;28;19959;-49
2023/02/14 03:25:17;;;;;;;;;;;;;;;-7.41;82.11;94588.59;5025729;28;19924;-50
2023/02/14 03:28:08;;;;;;;;;;;;;;;-7.26;82.85;94587.22;5010630;28;20373;-49
2023/02/14 03:30:37;;;;;;;;;;;;;;;-7.12;82.08;94582.38;4976533;28;19949;-49
2023/02/14 03:33:07;;;;;;;;;;;;;;;-7.32;81.69;94589.59;5016845;28;19921;-50
2023/02/14 03:35:33;;;;;;;;;;;;;;;-7.33;82.08;94579.28;5005928;28;20624;-49
2023/02/14 03:38:07;;;;;;;;;;;;;;;-7.29;82.02;94571.94;5007417;28;19918;-49
2023/02/14 03:40:38;;;;;;;;;;;;;;;-7.24;82.20;94552.69;5007443;28;19976;-50
2023/02/14 03:43:05;;;;;;;;;;;;;;;-7.03;81.38;94563.06;5007271;28;19917;-51
2023/02/14 03:45:35;;;;;;;;;;;;;;;-7.18;81.17;94556.41;5006354;28;19947;-48
2023/02/14 03:48:03;;;;;;;;;;;;;;;-7.54;80.89;94558.91;5007139;28;19991;-49
2023/02/14 03:50:28;;;;;;;;;;;;;;;-7.61;81.50;94561.69;5006235;28;20000;-48
2023/02/14 03:52:53;;;;;;;;;;;;;;;-7.72;81.80;94564.53;5005971;28;20031;-48
2023/02/14 03:55:21;;;;;;;;;;;;;;;-7.57;82.74;94562.41;5007276;28;20012;-48
2023/02/14 03:58:16;;;;;;;;;;;;;;;-7.50;82.28;94564.97;5006437;28;19924;-49
2023/02/14 04:00:41;;;;;;;;;;;;;;;-7.49;81.75;94563.06;5009282;28;19917;-49
2023/02/14 04:03:10;;;;;;;;;;;;;;;-7.47;80.89;94555.38;5026236;28;19928;-49
2023/02/14 04:05:37;;;;;;;;;;;;;;;-7.42;80.64;94557.56;5028874;28;20000;-49
2023/02/14 04:08:02;;;;;;;;;;;;;;;-7.44;79.95;94563.34;5029509;28;19913;-50
2023/02/14 04:10:27;;;;;;;;;;;;;;;-7.38;79.46;94555.59;5030266;28;20440;-49
2023/02/14 04:12:53;;;;;;;;;;;;;;;-7.33;79.76;94547.09;5030628;28;20448;-48
2023/02/14 04:15:18;;;;;;;;;;;;;;;-7.61;81.08;94567.06;5020349;28;20457;-49
2023/02/14 04:20:28;;;;;;;;;;;;;;;-7.82;82.86;94554.72;5010498;28;19920;-48
2023/02/14 04:22:53;;;;;;;;;;;;;;;-7.80;82.90;94557.00;5010521;28;19917;-49
2023/02/14 04:25:19;;;;;;;;;;;;;;;-7.85;82.25;94560.13;5010498;28;19921;-51
2023/02/14 04:27:44;;;;;;;;;;;;;;;-7.76;81.79;94552.34;5010654;28;19926;-48
2023/02/14 04:30:11;;;;;;;;;;;;;;;-7.77;81.73;94558.84;5010317;28;20374;-49
2023/02/14 04:32:36;;;;;;;;;;;;;;;-7.68;82.11;94550.31;5009895;28;20397;-48
2023/02/14 04:35:01;;;;;;;;;;;;;;;-7.75;82.55;94548.47;5010145;28;19972;-48
2023/02/14 04:37:27;;;;;;;;;;;;;;;-7.77;82.60;94542.78;5010209;28;19917;-49
2023/02/14 04:39:52;;;;;;;;;;;;;;;-7.85;81.86;94536.78;5010298;28;19917;-48
2023/02/14 04:42:17;;;;;;;;;;;;;;;-7.87;81.99;94532.97;5009602;28;19914;-49
2023/02/14 04:44:42;;;;;;;;;;;;;;;-8.01;82.10;94525.16;5010244;28;19976;-48
2023/02/14 04:47:08;;;;;;;;;;;;;;;-8.00;82.87;94527.41;5009923;28;20591;-52
2023/02/14 04:49:33;;;;;;;;;;;;;;;-8.15;83.24;94528.78;5009897;28;20011;-48
2023/02/14 04:51:59;;;;;;;;;;;;;;;-8.00;82.16;94519.38;5009841;28;19972;-49
2023/02/14 04:54:24;;;;;;;;;;;;;;;-7.97;82.08;94518.53;5013620;28;19921;-50
2023/02/14 04:56:49;;;;;;;;;;;;;;;-8.16;82.13;94526.47;5027017;28;20020;-49
2023/02/14 04:59:15;;;;;;;;;;;;;;;-8.18;83.19;94523.44;5009513;28;19913;-51
2023/02/14 05:01:40;;;;;;;;;;;;;;;-8.09;83.43;94521.78;5009517;28;20040;-48
2023/02/14 05:04:06;;;;;;;;;;;;;;;-8.22;84.09;94522.72;5009567;28;19924;-48
2023/02/14 05:06:32;;;;;;;;;;;;;;;-8.26;83.65;94528.19;5009349;28;19924;-49
2023/02/14 05:08:58;;;;;;;;;;;;;;;-8.39;82.83;94535.22;5009126;28;19917;-50
2023/02/14 05:11:23;;;;;;;;;;;;;;;-8.31;82.41;94539.31;5009521;28;19976;-49
2023/02/14 05:13:48;;;;;;;;;;;;;;;-8.37;82.08;94529.47;5009537;28;19917;-49
2023/02/14 05:16:14;;;;;;;;;;;;;;;-8.34;83.18;94536.69;5025811;28;19921;-49
2023/02/14 05:18:39;;;;;;;;;;;;;;;-8.38;83.66;94523.34;5029366;28;19924;-49
2023/02/14 05:21:04;;;;;;;;;;;;;;;-8.26;84.31;94528.19;5028944;28;20064;-49
2023/02/14 05:23:30;;;;;;;;;;;;;;;-8.32;84.33;94526.34;5028663;28;19917;-50
2023/02/14 05:25:55;;;;;;;;;;;;;;;-8.20;84.55;94523.84;5027337;28;19913;-49
2023/02/14 05:28:20;;;;;;;;;;;;;;;-8.18;84.21;94523.44;5008913;28;19922;-49
2023/02/14 05:30:46;;;;;;;;;;;;;;;-8.20;84.86;94526.53;5008665;28;19960;-48
2023/02/14 05:33:11;;;;;;;;;;;;;;;-8.00;84.59;94530.09;5010338;28;19921;-48
2023/02/14 05:35:36;;;;;;;;;;;;;;;-8.07;83.68;94524.81;5008948;28;19917;-48
2023/02/14 05:38:02;;;;;;;;;;;;;;;-8.18;83.34;94518.84;5009042;28;20464;-48
2023/02/14 05:40:27;;;;;;;;;;;;;;;-8.18;83.31;94536.84;5008922;28;20417;-48
2023/02/14 05:42:53;;;;;;;;;;;;;;;-8.27;83.00;94531.25;5008746;28;20376;-48
2023/02/14 05:45:18;;;;;;;;;;;;;;;-8.14;83.61;94524.19;5008992;28;19914;-49
2023/02/14 05:47:44;;;;;;;;;;;;;;;-8.03;82.86;94528.22;5008889;28;19928;-48
2023/02/14 05:50:09;;;;;;;;;;;;;;;-8.12;82.84;94525.25;5008571;28;20540;-50
2023/02/14 05:52:35;;;;;;;;;;;;;;;-8.09;83.03;94523.72;5027988;28;19956;-50
2023/02/14 05:55:00;;;;;;;;;;;;;;;-8.15;82.37;94525.31;5028189;28;19921;-48
2023/02/14 05:57:25;;;;;;;;;;;;;;;-7.95;82.27;94526.94;5020834;28;19948;-49
2023/02/14 05:59:51;;;;;;;;;;;;;;;-7.75;81.04;94530.47;5008441;28;19932;-48
2023/02/14 06:02:16;;;;;;;;;;;;;;;-7.74;81.30;94532.00;5008257;28;19920;-48
2023/02/14 06:04:41;;;;;;;;;;;;;;;-7.59;80.09;94526.41;5008364;28;19913;-49
2023/02/14 06:07:07;;;;;;;;;;;;;;;-7.44;80.89;94533.84;5008622;28;20416;-48
2023/02/14 06:09:32;;;;;;;;;;;;;;;-7.71;78.29;94544.59;5008349;28;19913;-48
2023/02/14 06:11:57;;;;;;;;;;;;;;;-7.39;77.42;94533.38;5008224;28;19922;-48
2023/02/14 06:14:23;;;;;;;;;;;;;;;-7.56;77.47;94534.44;5008309;28;19928;-47
2023/02/14 06:16:48;;;;;;;;;;;;;;;-7.67;78.60;94538.44;5008530;28;19929;-48
2023/02/14 06:19:13;;;;;;;;;;;;;;;-7.54;79.83;94537.47;5008172;28;20449;-49
2023/02/14 06:21:38;;;;;;;;;;;;;;;-7.53;80.36;94530.16;5008488;28;19917;-49
2023/02/14 06:24:04;;;;;;;;;;;;;;;-7.43;80.86;94529.25;5008440;28;19917;-49
2023/02/14 06:26:29;;;;;;;;;;;;;;;-7.09;80.90;94532.50;5007985;28;19917;-49
2023/02/14 06:28:55;;;;;;;;;;;;;;;-7.12;81.58;94533.31;5007921;28;19957;-50
2023/02/14 06:31:21;;;;;;;;;;;;;;;-6.81;81.73;94540.06;5013343;28;19925;-48
2023/02/14 06:33:46;;;;;;;;;;;;;;;-6.53;80.69;94534.16;5012959;28;19932;-52
2023/02/14 06:36:11;;;;;;;;;;;;;;;-6.35;80.27;94531.13;5007778;28;20027;-48
2023/02/14 06:38:37;;;;;;;;;;;;;;;-6.06;80.18;94532.03;5008052;28;19925;-48
2023/02/14 06:41:05;;;;;;;;;;;;;;;-6.09;80.59;94516.75;5008199;28;19964;-49
2023/02/14 06:43:30;;;;;;;;;;;;;;;-5.88;79.57;94505.53;5007652;28;20067;-48
2023/02/14 06:45:56;;;;;;;;;;;;;;;-5.61;79.79;94510.69;5007508;28;20008;-49
2023/02/14 06:48:21;;;;;;;;;;;;;;;-5.58;79.52;94517.91;5023265;28;19932;-48
2023/02/14 06:50:46;;;;;;;;;;;;;;;-5.31;78.12;94521.13;5027629;28;20087;-48
2023/02/14 06:53:12;;;;;;;;;;;;;;;-4.91;77.85;94522.41;5027690;28;20358;-48
2023/02/14 06:55:37;;;;;;;;;;;;;;;-4.31;75.84;94512.72;5027304;28;19987;-49
2023/02/14 06:58:02;;;;;;;;;;;;;;;-3.77;75.22;94501.94;5015061;28;19917;-49
2023/02/14 07:00:28;;;;;;;;;;;;;;;-3.37;72.88;94500.28;5007320;28;19920;-48
2023/02/14 07:02:53;;;;;;;;;;;;;;;-2.29;69.58;94499.72;5007883;28;19924;-49
2023/02/14 07:05:18;;;;;;;;;;;;;;;-1.23;67.53;94498.44;5007288;28;19913;-49
2023/02/14 07:07:43;;;;;;;;;;;;;;;-0.85;63.61;94496.13;5007872;28;20099;-48
2023/02/14 07:10:09;;;;;;;;;;;;;;;-0.02;62.72;94498.38;5007409;28;19960;-49
2023/02/14 07:12:34;;;;;;;;;;;;;;;0.20;60.99;94498.16;5007532;28;19929;-50
2023/02/14 07:14:59;;;;;;;;;;;;;;;0.14;61.55;94502.72;5014783;28;19967;-52
2023/02/14 07:17:25;;;;;;;;;;;;;;;1.62;57.41;94503.81;5027393;28;19921;-50
2023/02/14 07:19:50;;;;;;;;;;;;;;;2.87;55.47;94481.22;5027041;28;20371;-53
2023/02/14 07:22:15;;;;;;;;;;;;;;;4.31;51.08;94494.63;5027259;28;19920;-49
2023/02/14 07:24:41;;;;;;;;;;;;;;;3.94;50.82;94487.53;5027023;28;20376;-49
2023/02/14 07:27:06;;;;;;;;;;;;;;;5.30;50.77;94488.41;5015763;28;19921;-52
2023/02/14 07:29:31;;;;;;;;;;;;;;;6.61;47.66;94489.38;5007480;28;19914;-52
2023/02/14 07:31:57;;;;;;;;;;;;;;;6.16;46.93;94476.81;5017686;28;20317;-50
2023/02/14 07:34:22;;;;;;;;;;;;;;;8.06;45.40;94489.81;5007339;28;19925;-50
2023/02/14 07:36:47;;;;;;;;;;;;;;;7.21;45.36;94490.59;5007213;28;20013;-48
2023/02/14 07:39:13;;;;;;;;;;;;;;;7.63;46.03;94486.75;5009556;28;20012;-50
2023/02/14 07:41:38;;;;;;;;;;;;;;;8.91;44.17;94487.59;5010730;28;20341;-53
2023/02/14 07:44:03;;;;;;;;;;;;;;;9.96;42.33;94487.81;5022024;28;19927;-50
2023/02/14 07:46:28;;;;;;;;;;;;;;;9.26;43.47;94486.03;5030763;28;19913;-49
2023/02/14 07:48:54;;;;;;;;;;;;;;;10.79;41.08;94497.75;5030822;28;20577;-49
2023/02/14 07:51:19;;;;;;;;;;;;;;;11.17;39.72;94501.94;5030673;28;19917;-51
2023/02/14 07:53:44;;;;;;;;;;;;;;;11.44;37.80;94507.00;5030625;28;20011;-50
2023/02/14 07:56:10;;;;;;;;;;;;;;;12.85;37.12;94487.84;5030508;28;19921;-49
2023/02/14 07:58:35;;;;;;;;;;;;;;;13.00;35.56;94485.22;5022466;28;20735;-50
2023/02/14 08:01:00;;;;;;;;;;;;;;;12.71;36.02;94492.69;5010819;28;20463;-50
2023/02/14 08:03:25;;;;;;;;;;;;;;;13.33;35.23;94492.03;5010528;28;19948;-50
2023/02/14 08:05:55;;;;;;;;;;;;;;;13.13;35.20;94490.00;5010466;28;19921;-50
2023/02/14 08:08:22;;;;;;;;;;;;;;;13.37;34.23;94493.19;5010341;28;20127;-51
2023/02/14 08:10:47;;;;;;;;;;;;;;;13.33;33.75;94495.56;5010284;28;19921;-51
2023/02/14 08:13:13;;;;;;;;;;;;;;;13.94;33.53;94491.22;5010817;28;19914;-50
2023/02/14 08:18:22;;;;;;;;;;;;;;;14.34;32.82;94488.84;5010390;28;19920;-50
2023/02/14 08:20:48;;;;;;;;;;;;;;;14.34;33.26;94497.94;5010456;28;19933;-49
2023/02/14 08:23:14;;;;;;;;;;;;;;;14.59;32.15;94489.91;5010412;28;19914;-49
2023/02/14 08:25:39;;;;;;;;;;;;;;;13.82;33.80;94480.97;5010525;28;20312;-50
2023/02/14 08:28:04;;;;;;;;;;;;;;;14.35;33.32;94480.00;5029157;28;19995;-49
2023/02/14 08:30:30;;;;;;;;;;;;;;;15.70;31.89;94472.50;5029607;28;19917;-50
2023/02/14 08:32:55;;;;;;;;;;;;;;;15.98;30.55;94477.09;5012494;28;19921;-48
2023/02/14 08:35:20;;;;;;;;;;;;;;;16.10;29.80;94478.19;5009569;28;19936;-50
2023/02/14 08:37:46;;;;;;;;;;;;;;;15.59;30.57;94476.38;5010215;28;20016;-49
2023/02/14 08:40:11;;;;;;;;;;;;;;;15.67;30.97;94470.81;5009709;28;19925;-49
2023/02/14 08:42:36;;;;;;;;;;;;;;;15.23;32.05;94469.47;5009998;28;20117;-50
2023/02/14 08:45:02;;;;;;;;;;;;;;;15.02;30.94;94472.41;5009709;28;20408;-52
2023/02/14 08:47:27;;;;;;;;;;;;;;;15.58;30.83;94469.34;5009613;28;19917;-50
2023/02/14 08:49:52;;;;;;;;;;;;;;;15.38;30.85;94481.34;5009910;28;19914;-50
2023/02/14 08:52:18;;;;;;;;;;;;;;;14.66;31.42;94475.28;5009924;28;19991;-48
2023/02/14 08:54:43;;;;;;;;;;;;;;;14.59;32.02;94450.25;5009575;28;19917;-50
2023/02/14 08:57:08;;;;;;;;;;;;;;;14.02;33.13;94469.03;5009791;28;19913;-54
2023/02/14 08:59:33;;;;;;;;;;;;;;;14.90;31.72;94472.00;5009345;28;19929;-52
2023/02/14 09:01:59;;;;;;;;;;;;;;;15.39;30.23;94468.19;5009506;28;19920;-52
2023/02/14 09:04:24;;;;;;;;;;;;;;;16.19;29.27;94463.69;5009448;28;20397;-50
2023/02/14 09:06:49;;;;;;;;;;;;;;;15.72;29.89;94470.63;5009510;28;19917;-50
2023/02/14 09:09:16;;;;;;;;;;;;;;;15.70;30.08;94458.56;5009256;28;20356;-49
2023/02/14 09:11:41;;;;;;;;;;;;;;;15.01;31.29;94457.75;5009365;28;19922;-49
2023/02/14 09:14:07;;;;;;;;;;;;;;;15.14;31.15;94452.03;5009421;28;19928;-51
2023/02/14 09:16:32;;;;;;;;;;;;;;;12.54;34.57;94447.25;5029082;28;19917;-50
2023/02/14 09:18:57;;;;;;;;;;;;;;;13.37;34.66;94450.81;5029071;28;20373;-50
2023/02/14 09:21:23;;;;;;;;;;;;;;;13.88;33.93;94453.78;5028722;28;20019;-51
2023/02/14 09:23:49;;;;;;;;;;;;;;;14.97;31.60;94454.59;5029046;28;19913;-50
2023/02/14 09:26:15;;;;;;;;;;;;;;;13.29;34.11;94458.34;5024922;28;19990;-50
2023/02/14 09:28:40;;;;;;;;;;;;;;;12.76;35.77;94457.81;5009076;28;19924;-50
2023/02/14 09:31:13;;;;;;;;;;;;;;;13.33;34.55;94453.94;5012031;28;19916;-49
2023/02/14 09:36:22;;;;;;;;;;;;;;;10.92;38.10;94453.59;5018271;28;19932;-50
2023/02/14 09:38:47;;;;;;;;;;;;;;;10.03;38.30;94457.59;5028652;28;19925;-49
2023/02/14 09:41:33;;;;;;;;;;;;;;;9.66;41.55;94460.28;5028280;28;19913;-50
2023/02/14 09:43:59;;;;;;;;;;;;;;;10.92;41.43;94439.78;5028058;28;19913;-49
2023/02/14 09:46:24;;;;;;;;;;;;;;;11.85;37.96;94431.84;5028693;28;19920;-52
2023/02/14 09:48:49;;;;;;;;;;;;;;;11.95;37.95;94427.34;5028470;28;20312;-49
2023/02/14 09:51:25;;;;;;;;;;;;;;;12.94;35.76;94418.84;5028640;28;20554;-50
2023/02/14 09:54:09;;;;;;;;;;;;;;;12.45;35.73;94425.56;5028554;28;20014;-49
2023/02/14 09:56:40;;;;;;;;;;;;;;;12.56;36.03;94428.78;5027833;28;19928;-50
2023/02/14 09:59:05;;;;;;;;;;;;;;;11.33;39.22;94429.03;5008854;28;19925;-49
2023/02/14 10:01:32;;;;;;;;;;;;;;;11.32;38.62;94433.81;5007790;28;20453;-48
2023/02/14 10:03:57;;;;;;;;;;;;;;;10.55;40.42;94438.59;5007047;28;19975;-49
2023/02/14 10:06:33;;;;;;;;;;;;;;;9.55;42.79;94438.38;5008474;28;19917;-48
2023/02/14 10:09:13;;;;;;;;;;;;;;;9.58;43.34;94434.56;5007055;28;19920;-50
2023/02/14 10:11:38;;;;;;;;;;;;;;;9.75;43.63;94421.34;5006895;28;19914;-49
2023/02/14 10:14:05;;;;;;;;;;;;;;;9.36;44.06;94426.53;5007049;28;19921;-49
2023/02/14 10:16:31;;;;;;;;;;;;;;;8.74;45.60;94409.88;5022924;28;19918;-49
2023/02/14 10:18:59;;;;;;;;;;;;;;;8.44;47.32;94411.88;5006880;28;19917;-49
2023/02/14 10:21:31;;;;;;;;;;;;;;;9.50;45.94;94406.88;5008436;28;19917;-49
2023/02/14 10:24:09;;;;;;;;;;;;;;;10.40;42.92;94405.19;5008223;28;19991;-49
2023/02/14 10:26:35;;;;;;;;;;;;;;;11.17;41.04;94410.72;5008259;28;19917;-49
2023/02/14 10:29:01;;;;;;;;;;;;;;;9.55;44.10;94417.06;5008274;28;19917;-49
2023/02/14 10:31:38;;;;;;;;;;;;;;;9.00;45.81;94410.13;5009264;28;20318;-50
2023/02/14 10:34:03;;;;;;;;;;;;;;;9.31;45.47;94421.84;5023282;28;20007;-50
2023/02/14 10:36:28;;;;;;;;;;;;;;;8.98;45.90;94418.16;5027518;28;20401;-49
2023/02/14 10:38:57;;;;;;;;;;;;;;;9.30;45.82;94414.84;5027523;28;19913;-48
2023/02/14 10:41:42;;;;;;;;;;;;;;;9.71;44.35;94407.84;5026432;28;20309;-50
2023/02/14 10:44:08;;;;;;;;;;;;;;;9.88;45.07;94402.13;5026662;28;19960;-50
2023/02/14 10:46:39;;;;;;;;;;;;;;;10.98;42.24;94399.00;5027332;28;19963;-49
2023/02/14 10:49:23;;;;;;;;;;;;;;;10.25;43.49;94413.19;5026271;28;19947;-49
2023/02/14 10:51:48;;;;;;;;;;;;;;;8.99;46.46;94399.63;5027644;28;19913;-48
2023/02/14 10:54:13;;;;;;;;;;;;;;;8.79;47.00;94402.81;5027431;28;19917;-51
2023/02/14 10:56:49;;;;;;;;;;;;;;;8.30;48.44;94410.19;5027186;28;19921;-50
2023/02/14 10:59:21;;;;;;;;;;;;;;;7.85;50.11;94403.44;5022563;28;19972;-50
2023/02/14 11:01:47;;;;;;;;;;;;;;;7.62;50.79;94403.53;5007612;28;19948;-50
2023/02/14 11:04:13;;;;;;;;;;;;;;;6.95;52.51;94407.78;5007507;28;19968;-49
2023/02/14 11:06:38;;;;;;;;;;;;;;;6.72;53.71;94401.56;5006278;28;19914;-50
2023/02/14 11:09:04;;;;;;;;;;;;;;;6.74;53.56;94409.28;5007444;28;19917;-49
2023/02/14 11:11:30;;;;;;;;;;;;;;;6.54;54.80;94396.56;5007611;28;19914;-50
2023/02/14 11:13:55;;;;;;;;;;;;;;;6.36;54.79;94401.81;5009751;28;19923;-50
2023/02/14 11:16:30;;;;;;;;;;;;;;;6.59;53.83;94403.31;5011295;28;19929;-51
2023/02/14 11:19:07;;;;;;;;;;;;;;;6.46;54.54;94400.31;5011605;28;19917;-50
2023/02/14 11:21:36;;;;;;;;;;;;;;;6.10;55.50;94396.56;5011480;28;19964;-49
2023/02/14 11:24:01;;;;;;;;;;;;;;;6.03;56.74;94397.81;5011138;28;20415;-50
2023/02/14 11:26:29;;;;;;;;;;;;;;;6.23;55.25;94394.09;5011606;28;19918;-50
2023/02/14 11:28:55;;;;;;;;;;;;;;;5.74;56.27;94392.00;5021315;28;19921;-49
2023/02/14 11:31:25;;;;;;;;;;;;;;;5.86;56.61;94388.06;5029249;28;20328;-49
2023/02/14 11:33:50;;;;;;;;;;;;;;;6.10;55.35;94391.09;5017812;28;20380;-50
2023/02/14 11:36:16;;;;;;;;;;;;;;;5.74;56.63;94397.47;5011162;28;19921;-50
2023/02/14 11:38:42;;;;;;;;;;;;;;;5.87;56.95;94389.53;5011256;28;20032;-49
2023/02/14 11:41:09;;;;;;;;;;;;;;;5.91;57.14;94388.03;5011537;28;20492;-49
2023/02/14 11:43:38;;;;;;;;;;;;;;;6.00;57.24;94390.56;5009875;28;19932;-50
2023/02/14 11:46:06;;;;;;;;;;;;;;;5.84;56.85;94385.06;5010944;28;20627;-49
2023/02/14 11:48:34;;;;;;;;;;;;;;;5.77;57.24;94385.50;5011006;28;19921;-49
2023/02/14 11:50:59;;;;;;;;;;;;;;;5.62;58.39;94374.75;5010995;28;20004;-48
2023/02/14 11:53:26;;;;;;;;;;;;;;;5.25;59.57;94376.88;5011289;28;20360;-50
2023/02/14 11:55:54;;;;;;;;;;;;;;;5.29;59.80;94385.59;5009866;28;20580;-48
2023/02/14 11:58:30;;;;;;;;;;;;;;;5.33;59.56;94384.13;5019901;28;19918;-48
2023/02/14 12:00:56;;;;;;;;;;;;;;;5.03;60.95;94384.97;5010002;28;20389;-48
2023/02/14 12:03:21;;;;;;;;;;;;;;;4.89;61.20;94373.00;5010727;28;19971;-48
2023/02/14 12:05:47;;;;;;;;;;;;;;;4.78;61.85;94370.19;5010440;28;20023;-49
2023/02/14 12:08:13;;;;;;;;;;;;;;;4.49;63.02;94373.97;5010979;28;19975;-49
2023/02/14 12:10:38;;;;;;;;;;;;;;;4.97;62.07;94363.06;5010694;28;19914;-48
2023/02/14 12:13:19;;;;;;;;;;;;;;;5.45;60.63;94363.00;5009298;28;19964;-49
2023/02/14 12:15:44;;;;;;;;;;;;;;;5.47;60.66;94355.06;5009571;28;19917;-49
2023/02/14 12:18:16;;;;;;;;;;;;;;;5.00;60.96;94367.53;5010302;28;19999;-48
2023/02/14 12:20:48;;;;;;;;;;;;;;;4.82;61.59;94367.22;5009329;28;19921;-48
2023/02/14 12:23:28;;;;;;;;;;;;;;;4.56;62.52;94362.59;5010461;28;19925;-48
2023/02/14 12:25:59;;;;;;;;;;;;;;;4.90;61.30;94360.78;5010990;28;19921;-49
2023/02/14 12:28:29;;;;;;;;;;;;;;;5.11;61.02;94369.59;5028547;28;20411;-49
2023/02/14 12:30:54;;;;;;;;;;;;;;;4.56;62.74;94370.03;5028801;28;20010;-50
2023/02/14 12:33:20;;;;;;;;;;;;;;;4.67;62.82;94370.13;5018699;28;20392;-48
2023/02/14 12:35:50;;;;;;;;;;;;;;;4.55;63.33;94368.53;5009355;28;19929;-49
2023/02/14 12:38:29;;;;;;;;;;;;;;;4.59;63.28;94369.81;5010226;28;20020;-48
2023/02/14 12:41:15;;;;;;;;;;;;;;;4.79;63.15;94360.72;5008617;28;20515;-49
2023/02/14 12:43:49;;;;;;;;;;;;;;;4.88;62.18;94357.03;5010374;28;20335;-48
2023/02/14 12:46:20;;;;;;;;;;;;;;;5.02;62.03;94362.34;5010006;28;19913;-49
2023/02/14 12:49:04;;;;;;;;;;;;;;;4.98;61.00;94356.34;5009838;28;19917;-49
2023/02/14 12:51:49;;;;;;;;;;;;;;;4.84;61.43;94346.34;5010179;28;19940;-48
2023/02/14 12:54:17;;;;;;;;;;;;;;;4.91;61.33;94353.34;5009887;28;19924;-48
2023/02/14 12:57:01;;;;;;;;;;;;;;;4.46;62.60;94355.78;5011116;28;19988;-48
2023/02/14 12:59:45;;;;;;;;;;;;;;;4.56;62.76;94354.38;5014135;28;20460;-48
2023/02/14 13:02:29;;;;;;;;;;;;;;;4.65;61.99;94341.75;5010171;28;19996;-48
2023/02/14 13:04:54;;;;;;;;;;;;;;;4.35;63.40;94339.31;5009627;28;19924;-48
2023/02/14 13:07:23;;;;;;;;;;;;;;;4.41;62.76;94342.84;5009629;28;19914;-48
2023/02/14 13:09:48;;;;;;;;;;;;;;;4.67;62.23;94352.94;5008224;28;19918;-48
2023/02/14 13:12:17;;;;;;;;;;;;;;;4.40;63.30;94346.81;5009625;28;19914;-48
2023/02/14 13:14:50;;;;;;;;;;;;;;;4.51;62.44;94341.41;5009632;28;19925;-48